sensor_id;sensor_type;location;lat;lon;timestamp;P1;durP1;ratioP1;P2;durP2;ratioP2
71108;SDS011;59614;51.012;-1.648;2023-05-13T00:01:39;23.77;;;11.57;;
71108;SDS011;59614;51.012;-1.648;2023-05-13T00:04:05;21.10;;;10.85;;
71108;SDS011;59614;51.012;-1.648;2023-05-13T00:06:32;21.15;;;10.77;;
71108;SDS011;59614;51.012;-1.648;2023-05-13T00:08:58;21.40;;;11.13;;
71108;SDS011;59614;51.012;-1.648;2023-05-13T00:11:24;20.25;;;11.15;;
71108;SDS011;59614;51.012;-1.648;2023-05-13T00:13:49;17.15;;;10.45;;
71108;SDS011;59614;51.012;-1.648;2023-05-13T00:16:15;21.95;;;11.15;;
71108;SDS011;59614;51.012;-1.648;2023-05-13T00:18:40;18.02;;;10.38;;
71108;SDS011;59614;51.012;-1.648;2023-05-13T00:21:06;21.80;;;11.50;;
71108;SDS011;59614;51.012;-1.648;2023-05-13T00:23:32;20.77;;;11.05;;
71108;SDS011;59614;51.012;-1.648;2023-05-13T00:25:57;22.00;;;11.32;;
71108;SDS011;59614;51.012;-1.648;2023-05-13T00:28:25;19.25;;;10.48;;
71108;SDS011;59614;51.012;-1.648;2023-05-13T00:30:50;17.67;;;10.73;;
71108;SDS011;59614;51.012;-1.648;2023-05-13T00:33:15;19.65;;;10.07;;
71108;SDS011;59614;51.012;-1.648;2023-05-13T00:35:41;19.85;;;11.38;;
71108;SDS011;59614;51.012;-1.648;2023-05-13T00:38:07;16.10;;;10.70;;
71108;SDS011;59614;51.012;-1.648;2023-05-13T00:40:34;21.08;;;10.40;;
71108;SDS011;59614;51.012;-1.648;2023-05-13T00:43:03;19.65;;;10.57;;
71108;SDS011;59614;51.012;-1.648;2023-05-13T00:45:29;23.80;;;10.65;;
71108;SDS011;59614;51.012;-1.648;2023-05-13T00:47:54;23.92;;;11.32;;
71108;SDS011;59614;51.012;-1.648;2023-05-13T00:50:20;18.90;;;10.50;;
71108;SDS011;59614;51.012;-1.648;2023-05-13T00:52:45;18.70;;;10.57;;
71108;SDS011;59614;51.012;-1.648;2023-05-13T00:57:39;20.05;;;10.60;;
71108;SDS011;59614;51.012;-1.648;2023-05-13T01:00:04;15.85;;;10.18;;
71108;SDS011;59614;51.012;-1.648;2023-05-13T01:02:45;17.00;;;9.98;;
71108;SDS011;59614;51.012;-1.648;2023-05-13T01:07:52;22.48;;;9.85;;
71108;SDS011;59614;51.012;-1.648;2023-05-13T01:13:00;18.75;;;10.50;;
71108;SDS011;59614;51.012;-1.648;2023-05-13T01:15:31;17.27;;;9.68;;
71108;SDS011;59614;51.012;-1.648;2023-05-13T01:20:31;17.48;;;10.10;;
71108;SDS011;59614;51.012;-1.648;2023-05-13T01:22:58;20.70;;;10.27;;
71108;SDS011;59614;51.012;-1.648;2023-05-13T01:25:23;18.52;;;10.00;;
71108;SDS011;59614;51.012;-1.648;2023-05-13T01:27:50;19.60;;;9.77;;
71108;SDS011;59614;51.012;-1.648;2023-05-13T01:30:16;15.73;;;9.57;;
71108;SDS011;59614;51.012;-1.648;2023-05-13T01:32:42;20.58;;;9.85;;
71108;SDS011;59614;51.012;-1.648;2023-05-13T01:35:09;19.75;;;9.73;;
71108;SDS011;59614;51.012;-1.648;2023-05-13T01:37:36;18.38;;;9.35;;
71108;SDS011;59614;51.012;-1.648;2023-05-13T01:40:03;16.40;;;9.18;;
71108;SDS011;59614;51.012;-1.648;2023-05-13T01:42:29;20.35;;;10.20;;
71108;SDS011;59614;51.012;-1.648;2023-05-13T01:44:55;20.75;;;10.48;;
71108;SDS011;59614;51.012;-1.648;2023-05-13T01:47:21;20.05;;;10.02;;
71108;SDS011;59614;51.012;-1.648;2023-05-13T01:49:47;16.83;;;10.27;;
71108;SDS011;59614;51.012;-1.648;2023-05-13T01:52:12;16.75;;;9.75;;
71108;SDS011;59614;51.012;-1.648;2023-05-13T01:54:38;22.00;;;10.10;;
71108;SDS011;59614;51.012;-1.648;2023-05-13T01:57:03;17.95;;;10.52;;
71108;SDS011;59614;51.012;-1.648;2023-05-13T01:59:29;23.40;;;10.95;;
71108;SDS011;59614;51.012;-1.648;2023-05-13T02:01:54;16.98;;;9.98;;
71108;SDS011;59614;51.012;-1.648;2023-05-13T02:04:20;17.35;;;9.95;;
71108;SDS011;59614;51.012;-1.648;2023-05-13T02:06:45;16.20;;;9.77;;
71108;SDS011;59614;51.012;-1.648;2023-05-13T02:09:11;20.70;;;10.05;;
71108;SDS011;59614;51.012;-1.648;2023-05-13T02:11:37;18.35;;;10.55;;
71108;SDS011;59614;51.012;-1.648;2023-05-13T02:14:02;15.52;;;9.93;;
71108;SDS011;59614;51.012;-1.648;2023-05-13T02:16:28;18.25;;;10.40;;
71108;SDS011;59614;51.012;-1.648;2023-05-13T02:18:54;18.30;;;10.38;;
71108;SDS011;59614;51.012;-1.648;2023-05-13T02:21:19;20.27;;;11.05;;
71108;SDS011;59614;51.012;-1.648;2023-05-13T02:23:45;17.08;;;9.80;;
71108;SDS011;59614;51.012;-1.648;2023-05-13T02:26:10;19.95;;;10.20;;
71108;SDS011;59614;51.012;-1.648;2023-05-13T02:28:36;18.90;;;10.40;;
71108;SDS011;59614;51.012;-1.648;2023-05-13T02:31:01;17.55;;;10.02;;
71108;SDS011;59614;51.012;-1.648;2023-05-13T02:33:27;18.50;;;10.25;;
71108;SDS011;59614;51.012;-1.648;2023-05-13T02:35:52;21.38;;;11.32;;
71108;SDS011;59614;51.012;-1.648;2023-05-13T02:38:18;19.35;;;10.82;;
71108;SDS011;59614;51.012;-1.648;2023-05-13T02:40:43;20.00;;;9.57;;
71108;SDS011;59614;51.012;-1.648;2023-05-13T02:43:09;16.48;;;10.38;;
71108;SDS011;59614;51.012;-1.648;2023-05-13T02:45:34;14.93;;;10.13;;
71108;SDS011;59614;51.012;-1.648;2023-05-13T02:47:59;18.90;;;10.77;;
71108;SDS011;59614;51.012;-1.648;2023-05-13T02:50:25;18.15;;;10.35;;
71108;SDS011;59614;51.012;-1.648;2023-05-13T02:52:51;18.90;;;10.30;;
71108;SDS011;59614;51.012;-1.648;2023-05-13T02:55:16;18.90;;;10.43;;
71108;SDS011;59614;51.012;-1.648;2023-05-13T02:57:42;17.77;;;10.57;;
71108;SDS011;59614;51.012;-1.648;2023-05-13T03:00:07;26.25;;;11.13;;
71108;SDS011;59614;51.012;-1.648;2023-05-13T03:02:36;17.52;;;10.55;;
71108;SDS011;59614;51.012;-1.648;2023-05-13T03:05:01;17.73;;;10.95;;
71108;SDS011;59614;51.012;-1.648;2023-05-13T03:07:27;21.98;;;10.35;;
71108;SDS011;59614;51.012;-1.648;2023-05-13T03:09:53;20.67;;;10.57;;
71108;SDS011;59614;51.012;-1.648;2023-05-13T03:12:18;21.55;;;10.77;;
71108;SDS011;59614;51.012;-1.648;2023-05-13T03:14:44;18.80;;;9.88;;
71108;SDS011;59614;51.012;-1.648;2023-05-13T03:17:10;17.40;;;10.32;;
71108;SDS011;59614;51.012;-1.648;2023-05-13T03:19:36;25.02;;;11.65;;
71108;SDS011;59614;51.012;-1.648;2023-05-13T03:22:03;18.80;;;11.15;;
71108;SDS011;59614;51.012;-1.648;2023-05-13T03:24:29;20.48;;;11.32;;
71108;SDS011;59614;51.012;-1.648;2023-05-13T03:26:55;15.07;;;10.32;;
71108;SDS011;59614;51.012;-1.648;2023-05-13T03:29:21;20.75;;;11.18;;
71108;SDS011;59614;51.012;-1.648;2023-05-13T03:31:47;22.48;;;10.93;;
71108;SDS011;59614;51.012;-1.648;2023-05-13T03:34:13;25.42;;;11.05;;
71108;SDS011;59614;51.012;-1.648;2023-05-13T03:36:39;19.67;;;10.70;;
71108;SDS011;59614;51.012;-1.648;2023-05-13T03:39:05;17.88;;;10.23;;
71108;SDS011;59614;51.012;-1.648;2023-05-13T03:41:30;15.00;;;9.55;;
71108;SDS011;59614;51.012;-1.648;2023-05-13T03:43:55;19.20;;;9.85;;
71108;SDS011;59614;51.012;-1.648;2023-05-13T03:46:21;20.00;;;10.20;;
71108;SDS011;59614;51.012;-1.648;2023-05-13T03:48:47;17.35;;;10.32;;
71108;SDS011;59614;51.012;-1.648;2023-05-13T03:51:13;17.15;;;10.18;;
71108;SDS011;59614;51.012;-1.648;2023-05-13T03:53:38;20.08;;;10.27;;
71108;SDS011;59614;51.012;-1.648;2023-05-13T03:56:04;20.90;;;11.48;;
71108;SDS011;59614;51.012;-1.648;2023-05-13T03:58:30;21.88;;;11.25;;
71108;SDS011;59614;51.012;-1.648;2023-05-13T04:00:55;23.50;;;11.60;;
71108;SDS011;59614;51.012;-1.648;2023-05-13T04:03:20;16.70;;;10.55;;
71108;SDS011;59614;51.012;-1.648;2023-05-13T04:05:46;19.63;;;11.48;;
71108;SDS011;59614;51.012;-1.648;2023-05-13T04:08:12;20.55;;;10.70;;
71108;SDS011;59614;51.012;-1.648;2023-05-13T04:10:38;19.30;;;11.27;;
71108;SDS011;59614;51.012;-1.648;2023-05-13T04:13:04;22.70;;;11.75;;
71108;SDS011;59614;51.012;-1.648;2023-05-13T04:15:29;19.33;;;11.52;;
71108;SDS011;59614;51.012;-1.648;2023-05-13T04:17:56;18.90;;;10.77;;
71108;SDS011;59614;51.012;-1.648;2023-05-13T04:20:21;17.92;;;10.73;;
71108;SDS011;59614;51.012;-1.648;2023-05-13T04:22:47;19.95;;;11.48;;
71108;SDS011;59614;51.012;-1.648;2023-05-13T04:25:12;17.88;;;10.82;;
71108;SDS011;59614;51.012;-1.648;2023-05-13T04:27:38;20.30;;;10.77;;
71108;SDS011;59614;51.012;-1.648;2023-05-13T04:30:03;19.15;;;11.25;;
71108;SDS011;59614;51.012;-1.648;2023-05-13T04:32:30;18.75;;;10.88;;
71108;SDS011;59614;51.012;-1.648;2023-05-13T04:34:55;17.40;;;9.93;;
71108;SDS011;59614;51.012;-1.648;2023-05-13T04:37:21;20.13;;;10.75;;
71108;SDS011;59614;51.012;-1.648;2023-05-13T04:39:46;21.60;;;10.30;;
71108;SDS011;59614;51.012;-1.648;2023-05-13T04:42:12;20.15;;;10.52;;
71108;SDS011;59614;51.012;-1.648;2023-05-13T04:44:38;20.15;;;10.05;;
71108;SDS011;59614;51.012;-1.648;2023-05-13T04:47:04;21.50;;;10.10;;
71108;SDS011;59614;51.012;-1.648;2023-05-13T04:49:30;17.48;;;10.13;;
71108;SDS011;59614;51.012;-1.648;2023-05-13T04:51:55;17.17;;;10.10;;
71108;SDS011;59614;51.012;-1.648;2023-05-13T04:54:21;17.33;;;10.55;;
71108;SDS011;59614;51.012;-1.648;2023-05-13T04:56:47;19.38;;;9.70;;
71108;SDS011;59614;51.012;-1.648;2023-05-13T04:59:13;14.68;;;9.55;;
71108;SDS011;59614;51.012;-1.648;2023-05-13T05:01:38;19.17;;;11.02;;
71108;SDS011;59614;51.012;-1.648;2023-05-13T05:04:04;17.25;;;9.90;;
71108;SDS011;59614;51.012;-1.648;2023-05-13T05:06:29;18.23;;;9.65;;
71108;SDS011;59614;51.012;-1.648;2023-05-13T05:08:56;16.67;;;10.23;;
71108;SDS011;59614;51.012;-1.648;2023-05-13T05:11:22;21.00;;;10.50;;
71108;SDS011;59614;51.012;-1.648;2023-05-13T05:13:47;14.70;;;9.68;;
71108;SDS011;59614;51.012;-1.648;2023-05-13T05:16:13;17.63;;;10.52;;
71108;SDS011;59614;51.012;-1.648;2023-05-13T05:18:38;16.98;;;10.63;;
71108;SDS011;59614;51.012;-1.648;2023-05-13T05:21:05;17.23;;;9.77;;
71108;SDS011;59614;51.012;-1.648;2023-05-13T05:23:31;20.60;;;10.48;;
71108;SDS011;59614;51.012;-1.648;2023-05-13T05:25:56;20.73;;;9.80;;
71108;SDS011;59614;51.012;-1.648;2023-05-13T05:28:24;17.07;;;10.13;;
71108;SDS011;59614;51.012;-1.648;2023-05-13T05:30:50;17.23;;;10.48;;
71108;SDS011;59614;51.012;-1.648;2023-05-13T05:33:15;16.20;;;10.23;;
71108;SDS011;59614;51.012;-1.648;2023-05-13T05:35:41;21.00;;;9.80;;
71108;SDS011;59614;51.012;-1.648;2023-05-13T05:38:07;18.80;;;9.85;;
71108;SDS011;59614;51.012;-1.648;2023-05-13T05:40:38;21.60;;;9.95;;
71108;SDS011;59614;51.012;-1.648;2023-05-13T05:43:05;15.90;;;9.35;;
71108;SDS011;59614;51.012;-1.648;2023-05-13T05:45:31;18.30;;;9.40;;
71108;SDS011;59614;51.012;-1.648;2023-05-13T05:47:58;16.38;;;9.90;;
71108;SDS011;59614;51.012;-1.648;2023-05-13T05:50:24;16.58;;;9.40;;
71108;SDS011;59614;51.012;-1.648;2023-05-13T05:52:49;14.65;;;9.57;;
71108;SDS011;59614;51.012;-1.648;2023-05-13T05:55:14;18.38;;;9.95;;
71108;SDS011;59614;51.012;-1.648;2023-05-13T05:57:40;17.63;;;9.43;;
71108;SDS011;59614;51.012;-1.648;2023-05-13T06:00:06;17.90;;;10.15;;
71108;SDS011;59614;51.012;-1.648;2023-05-13T06:02:31;18.40;;;10.48;;
71108;SDS011;59614;51.012;-1.648;2023-05-13T06:04:57;22.48;;;11.20;;
71108;SDS011;59614;51.012;-1.648;2023-05-13T06:07:22;15.40;;;10.73;;
71108;SDS011;59614;51.012;-1.648;2023-05-13T06:09:48;20.80;;;10.70;;
71108;SDS011;59614;51.012;-1.648;2023-05-13T06:12:13;17.52;;;11.05;;
71108;SDS011;59614;51.012;-1.648;2023-05-13T06:14:39;28.25;;;12.30;;
71108;SDS011;59614;51.012;-1.648;2023-05-13T06:17:05;20.73;;;10.45;;
71108;SDS011;59614;51.012;-1.648;2023-05-13T06:19:30;20.58;;;10.65;;
71108;SDS011;59614;51.012;-1.648;2023-05-13T06:21:55;26.95;;;10.55;;
71108;SDS011;59614;51.012;-1.648;2023-05-13T06:24:21;18.48;;;10.35;;
71108;SDS011;59614;51.012;-1.648;2023-05-13T06:26:46;16.23;;;9.27;;
71108;SDS011;59614;51.012;-1.648;2023-05-13T06:29:12;15.60;;;8.88;;
71108;SDS011;59614;51.012;-1.648;2023-05-13T06:31:37;16.40;;;10.07;;
71108;SDS011;59614;51.012;-1.648;2023-05-13T06:34:03;18.15;;;9.77;;
71108;SDS011;59614;51.012;-1.648;2023-05-13T06:36:28;13.18;;;9.20;;
71108;SDS011;59614;51.012;-1.648;2023-05-13T06:38:54;17.15;;;9.15;;
71108;SDS011;59614;51.012;-1.648;2023-05-13T06:41:19;13.75;;;8.43;;
71108;SDS011;59614;51.012;-1.648;2023-05-13T06:43:45;15.43;;;9.05;;
71108;SDS011;59614;51.012;-1.648;2023-05-13T06:46:12;12.25;;;8.30;;
71108;SDS011;59614;51.012;-1.648;2023-05-13T06:48:38;14.57;;;8.20;;
71108;SDS011;59614;51.012;-1.648;2023-05-13T06:51:04;15.48;;;8.35;;
71108;SDS011;59614;51.012;-1.648;2023-05-13T06:53:30;13.13;;;8.15;;
71108;SDS011;59614;51.012;-1.648;2023-05-13T06:55:58;12.85;;;7.80;;
71108;SDS011;59614;51.012;-1.648;2023-05-13T06:58:23;13.32;;;7.55;;
71108;SDS011;59614;51.012;-1.648;2023-05-13T07:00:49;14.52;;;8.63;;
71108;SDS011;59614;51.012;-1.648;2023-05-13T07:03:14;15.23;;;8.30;;
71108;SDS011;59614;51.012;-1.648;2023-05-13T07:05:41;13.55;;;7.35;;
71108;SDS011;59614;51.012;-1.648;2023-05-13T07:08:07;13.35;;;7.90;;
71108;SDS011;59614;51.012;-1.648;2023-05-13T07:10:33;14.05;;;7.90;;
71108;SDS011;59614;51.012;-1.648;2023-05-13T07:13:02;13.15;;;7.40;;
71108;SDS011;59614;51.012;-1.648;2023-05-13T07:15:28;13.50;;;7.28;;
71108;SDS011;59614;51.012;-1.648;2023-05-13T07:17:53;11.13;;;6.82;;
71108;SDS011;59614;51.012;-1.648;2023-05-13T07:20:18;15.63;;;7.22;;
71108;SDS011;59614;51.012;-1.648;2023-05-13T07:22:50;11.13;;;6.70;;
71108;SDS011;59614;51.012;-1.648;2023-05-13T07:25:16;13.13;;;6.90;;
71108;SDS011;59614;51.012;-1.648;2023-05-13T07:27:42;14.23;;;6.70;;
71108;SDS011;59614;51.012;-1.648;2023-05-13T07:30:09;12.23;;;6.22;;
71108;SDS011;59614;51.012;-1.648;2023-05-13T07:32:35;9.70;;;5.73;;
71108;SDS011;59614;51.012;-1.648;2023-05-13T07:35:01;9.85;;;6.45;;
71108;SDS011;59614;51.012;-1.648;2023-05-13T07:37:27;10.63;;;6.03;;
71108;SDS011;59614;51.012;-1.648;2023-05-13T07:39:53;12.18;;;6.28;;
71108;SDS011;59614;51.012;-1.648;2023-05-13T07:42:18;9.48;;;6.05;;
71108;SDS011;59614;51.012;-1.648;2023-05-13T07:44:44;9.05;;;6.00;;
71108;SDS011;59614;51.012;-1.648;2023-05-13T07:47:10;10.93;;;5.90;;
71108;SDS011;59614;51.012;-1.648;2023-05-13T07:49:35;9.38;;;5.47;;
71108;SDS011;59614;51.012;-1.648;2023-05-13T07:52:01;11.07;;;5.80;;
71108;SDS011;59614;51.012;-1.648;2023-05-13T07:54:27;11.07;;;5.57;;
71108;SDS011;59614;51.012;-1.648;2023-05-13T07:56:52;11.98;;;6.25;;
71108;SDS011;59614;51.012;-1.648;2023-05-13T07:59:17;9.38;;;5.53;;
71108;SDS011;59614;51.012;-1.648;2023-05-13T08:01:43;12.10;;;5.93;;
71108;SDS011;59614;51.012;-1.648;2023-05-13T08:04:09;10.75;;;5.82;;
71108;SDS011;59614;51.012;-1.648;2023-05-13T08:06:34;10.43;;;5.88;;
71108;SDS011;59614;51.012;-1.648;2023-05-13T08:09:00;12.75;;;5.75;;
71108;SDS011;59614;51.012;-1.648;2023-05-13T08:11:26;9.63;;;5.55;;
71108;SDS011;59614;51.012;-1.648;2023-05-13T08:13:51;9.35;;;5.45;;
71108;SDS011;59614;51.012;-1.648;2023-05-13T08:16:17;10.98;;;5.72;;
71108;SDS011;59614;51.012;-1.648;2023-05-13T08:18:42;9.85;;;5.82;;
71108;SDS011;59614;51.012;-1.648;2023-05-13T08:21:08;9.27;;;5.90;;
71108;SDS011;59614;51.012;-1.648;2023-05-13T08:23:35;10.63;;;6.32;;
71108;SDS011;59614;51.012;-1.648;2023-05-13T08:26:01;11.60;;;7.07;;
71108;SDS011;59614;51.012;-1.648;2023-05-13T08:28:26;14.48;;;6.90;;
71108;SDS011;59614;51.012;-1.648;2023-05-13T08:30:53;14.50;;;6.75;;
71108;SDS011;59614;51.012;-1.648;2023-05-13T08:33:19;13.77;;;6.85;;
71108;SDS011;59614;51.012;-1.648;2023-05-13T08:35:45;14.68;;;7.57;;
71108;SDS011;59614;51.012;-1.648;2023-05-13T08:38:11;11.20;;;6.82;;
71108;SDS011;59614;51.012;-1.648;2023-05-13T08:40:37;11.00;;;6.80;;
71108;SDS011;59614;51.012;-1.648;2023-05-13T08:43:02;14.20;;;6.50;;
71108;SDS011;59614;51.012;-1.648;2023-05-13T08:45:29;12.93;;;6.60;;
71108;SDS011;59614;51.012;-1.648;2023-05-13T08:48:01;13.43;;;6.93;;
71108;SDS011;59614;51.012;-1.648;2023-05-13T08:50:28;18.30;;;7.18;;
71108;SDS011;59614;51.012;-1.648;2023-05-13T08:52:54;16.83;;;7.50;;
71108;SDS011;59614;51.012;-1.648;2023-05-13T08:55:21;13.63;;;6.88;;
71108;SDS011;59614;51.012;-1.648;2023-05-13T08:57:48;13.48;;;7.38;;
71108;SDS011;59614;51.012;-1.648;2023-05-13T09:00:13;13.60;;;6.93;;
71108;SDS011;59614;51.012;-1.648;2023-05-13T09:02:40;14.32;;;7.35;;
71108;SDS011;59614;51.012;-1.648;2023-05-13T09:05:06;13.95;;;6.57;;
71108;SDS011;59614;51.012;-1.648;2023-05-13T09:07:33;9.02;;;6.25;;
71108;SDS011;59614;51.012;-1.648;2023-05-13T09:10:00;11.20;;;7.22;;
71108;SDS011;59614;51.012;-1.648;2023-05-13T09:12:42;17.45;;;6.53;;
71108;SDS011;59614;51.012;-1.648;2023-05-13T09:15:10;13.35;;;6.50;;
71108;SDS011;59614;51.012;-1.648;2023-05-13T09:17:43;12.50;;;6.45;;
71108;SDS011;59614;51.012;-1.648;2023-05-13T09:20:12;10.73;;;5.65;;
71108;SDS011;59614;51.012;-1.648;2023-05-13T09:22:46;10.40;;;5.93;;
71108;SDS011;59614;51.012;-1.648;2023-05-13T09:25:16;16.13;;;6.13;;
71108;SDS011;59614;51.012;-1.648;2023-05-13T09:27:45;11.73;;;6.47;;
71108;SDS011;59614;51.012;-1.648;2023-05-13T09:30:12;11.13;;;6.40;;
71108;SDS011;59614;51.012;-1.648;2023-05-13T09:32:38;10.98;;;5.95;;
71108;SDS011;59614;51.012;-1.648;2023-05-13T09:35:08;10.75;;;5.88;;
71108;SDS011;59614;51.012;-1.648;2023-05-13T09:37:35;11.20;;;6.05;;
71108;SDS011;59614;51.012;-1.648;2023-05-13T09:40:01;11.55;;;6.00;;
71108;SDS011;59614;51.012;-1.648;2023-05-13T09:42:27;11.77;;;6.00;;
71108;SDS011;59614;51.012;-1.648;2023-05-13T09:44:53;8.80;;;5.97;;
71108;SDS011;59614;51.012;-1.648;2023-05-13T09:47:19;10.75;;;6.28;;
71108;SDS011;59614;51.012;-1.648;2023-05-13T09:49:53;8.60;;;5.40;;
71108;SDS011;59614;51.012;-1.648;2023-05-13T09:52:21;9.23;;;5.45;;
71108;SDS011;59614;51.012;-1.648;2023-05-13T09:54:46;8.93;;;5.78;;
71108;SDS011;59614;51.012;-1.648;2023-05-13T09:57:12;10.88;;;6.07;;
71108;SDS011;59614;51.012;-1.648;2023-05-13T09:59:38;11.95;;;6.35;;
71108;SDS011;59614;51.012;-1.648;2023-05-13T10:02:04;10.05;;;5.90;;
71108;SDS011;59614;51.012;-1.648;2023-05-13T10:04:31;15.57;;;6.03;;
71108;SDS011;59614;51.012;-1.648;2023-05-13T10:06:57;11.93;;;6.10;;
71108;SDS011;59614;51.012;-1.648;2023-05-13T10:09:26;10.88;;;6.03;;
71108;SDS011;59614;51.012;-1.648;2023-05-13T10:11:54;10.23;;;5.85;;
71108;SDS011;59614;51.012;-1.648;2023-05-13T10:14:20;11.20;;;6.20;;
71108;SDS011;59614;51.012;-1.648;2023-05-13T10:16:46;11.45;;;5.38;;
71108;SDS011;59614;51.012;-1.648;2023-05-13T10:19:13;9.02;;;5.25;;
71108;SDS011;59614;51.012;-1.648;2023-05-13T10:21:39;9.70;;;5.10;;
71108;SDS011;59614;51.012;-1.648;2023-05-13T10:24:05;8.15;;;5.05;;
71108;SDS011;59614;51.012;-1.648;2023-05-13T10:26:31;10.40;;;5.47;;
71108;SDS011;59614;51.012;-1.648;2023-05-13T10:28:58;9.30;;;5.13;;
71108;SDS011;59614;51.012;-1.648;2023-05-13T10:31:24;11.90;;;5.35;;
71108;SDS011;59614;51.012;-1.648;2023-05-13T10:33:51;10.13;;;5.75;;
71108;SDS011;59614;51.012;-1.648;2023-05-13T10:42:00;7.97;;;5.25;;
71108;SDS011;59614;51.012;-1.648;2023-05-13T10:44:33;8.63;;;5.53;;
71108;SDS011;59614;51.012;-1.648;2023-05-13T10:47:00;10.30;;;5.22;;
71108;SDS011;59614;51.012;-1.648;2023-05-13T10:49:31;8.73;;;5.37;;
71108;SDS011;59614;51.012;-1.648;2023-05-13T10:52:05;8.60;;;5.05;;
71108;SDS011;59614;51.012;-1.648;2023-05-13T10:54:36;9.25;;;5.32;;
71108;SDS011;59614;51.012;-1.648;2023-05-13T10:57:06;9.90;;;5.40;;
71108;SDS011;59614;51.012;-1.648;2023-05-13T10:59:32;8.40;;;5.15;;
71108;SDS011;59614;51.012;-1.648;2023-05-13T11:02:00;7.38;;;4.63;;
71108;SDS011;59614;51.012;-1.648;2023-05-13T11:04:26;9.60;;;5.13;;
71108;SDS011;59614;51.012;-1.648;2023-05-13T11:06:52;8.50;;;4.32;;
71108;SDS011;59614;51.012;-1.648;2023-05-13T11:09:38;14.00;;;5.00;;
71108;SDS011;59614;51.012;-1.648;2023-05-13T11:12:03;9.00;;;5.03;;
71108;SDS011;59614;51.012;-1.648;2023-05-13T11:14:29;13.68;;;5.25;;
71108;SDS011;59614;51.012;-1.648;2023-05-13T11:22:21;11.18;;;4.95;;
71108;SDS011;59614;51.012;-1.648;2023-05-13T11:25:02;8.48;;;4.80;;
71108;SDS011;59614;51.012;-1.648;2023-05-13T11:27:28;9.02;;;5.00;;
71108;SDS011;59614;51.012;-1.648;2023-05-13T11:29:57;8.15;;;4.60;;
71108;SDS011;59614;51.012;-1.648;2023-05-13T11:35:20;9.88;;;5.10;;
71108;SDS011;59614;51.012;-1.648;2023-05-13T11:37:46;9.02;;;4.32;;
71108;SDS011;59614;51.012;-1.648;2023-05-13T11:40:22;7.57;;;4.60;;
71108;SDS011;59614;51.012;-1.648;2023-05-13T11:42:49;8.30;;;4.45;;
71108;SDS011;59614;51.012;-1.648;2023-05-13T11:45:16;8.25;;;4.45;;
71108;SDS011;59614;51.012;-1.648;2023-05-13T11:47:42;10.02;;;4.90;;
71108;SDS011;59614;51.012;-1.648;2023-05-13T11:50:21;7.85;;;4.82;;
71108;SDS011;59614;51.012;-1.648;2023-05-13T11:52:51;8.25;;;4.43;;
71108;SDS011;59614;51.012;-1.648;2023-05-13T11:55:25;9.05;;;4.50;;
71108;SDS011;59614;51.012;-1.648;2023-05-13T11:57:51;10.63;;;5.30;;
71108;SDS011;59614;51.012;-1.648;2023-05-13T12:00:17;8.75;;;5.18;;
71108;SDS011;59614;51.012;-1.648;2023-05-13T12:03:10;8.15;;;4.90;;
71108;SDS011;59614;51.012;-1.648;2023-05-13T12:05:39;10.32;;;4.85;;
71108;SDS011;59614;51.012;-1.648;2023-05-13T12:08:05;8.75;;;5.47;;
71108;SDS011;59614;51.012;-1.648;2023-05-13T12:10:34;10.90;;;5.75;;
71108;SDS011;59614;51.012;-1.648;2023-05-13T12:13:00;11.48;;;5.35;;
71108;SDS011;59614;51.012;-1.648;2023-05-13T12:15:25;8.55;;;5.38;;
71108;SDS011;59614;51.012;-1.648;2023-05-13T12:17:52;8.55;;;5.30;;
71108;SDS011;59614;51.012;-1.648;2023-05-13T12:20:21;8.75;;;5.32;;
71108;SDS011;59614;51.012;-1.648;2023-05-13T12:33:26;10.55;;;5.55;;
71108;SDS011;59614;51.012;-1.648;2023-05-13T12:35:53;9.52;;;5.32;;
71108;SDS011;59614;51.012;-1.648;2023-05-13T12:38:39;9.80;;;5.13;;
71108;SDS011;59614;51.012;-1.648;2023-05-13T12:41:16;9.25;;;5.70;;
71108;SDS011;59614;51.012;-1.648;2023-05-13T12:43:42;12.10;;;5.75;;
71108;SDS011;59614;51.012;-1.648;2023-05-13T12:46:07;8.00;;;4.85;;
71108;SDS011;59614;51.012;-1.648;2023-05-13T12:48:33;13.73;;;5.90;;
71108;SDS011;59614;51.012;-1.648;2023-05-13T12:50:58;9.57;;;5.60;;
71108;SDS011;59614;51.012;-1.648;2023-05-13T12:53:24;11.68;;;5.35;;
71108;SDS011;59614;51.012;-1.648;2023-05-13T12:55:49;9.05;;;5.28;;
71108;SDS011;59614;51.012;-1.648;2023-05-13T12:58:15;8.68;;;5.72;;
71108;SDS011;59614;51.012;-1.648;2023-05-13T13:00:41;8.68;;;5.03;;
71108;SDS011;59614;51.012;-1.648;2023-05-13T13:03:06;14.43;;;5.50;;
71108;SDS011;59614;51.012;-1.648;2023-05-13T13:05:32;11.05;;;6.07;;
71108;SDS011;59614;51.012;-1.648;2023-05-13T13:07:57;9.93;;;5.18;;
71108;SDS011;59614;51.012;-1.648;2023-05-13T13:10:25;8.57;;;5.10;;
71108;SDS011;59614;51.012;-1.648;2023-05-13T13:12:50;7.75;;;4.82;;
71108;SDS011;59614;51.012;-1.648;2023-05-13T13:15:16;8.95;;;5.22;;
71108;SDS011;59614;51.012;-1.648;2023-05-13T13:17:42;8.93;;;5.50;;
71108;SDS011;59614;51.012;-1.648;2023-05-13T13:20:07;8.43;;;5.25;;
71108;SDS011;59614;51.012;-1.648;2023-05-13T13:22:33;8.52;;;5.22;;
71108;SDS011;59614;51.012;-1.648;2023-05-13T13:27:26;10.50;;;5.32;;
71108;SDS011;59614;51.012;-1.648;2023-05-13T13:29:52;10.32;;;5.30;;
71108;SDS011;59614;51.012;-1.648;2023-05-13T13:32:17;7.85;;;5.43;;
71108;SDS011;59614;51.012;-1.648;2023-05-13T13:34:43;8.75;;;5.65;;
71108;SDS011;59614;51.012;-1.648;2023-05-13T13:37:08;8.68;;;5.45;;
71108;SDS011;59614;51.012;-1.648;2023-05-13T13:39:33;9.68;;;6.00;;
71108;SDS011;59614;51.012;-1.648;2023-05-13T13:41:59;8.07;;;5.30;;
71108;SDS011;59614;51.012;-1.648;2023-05-13T13:44:24;10.50;;;6.60;;
71108;SDS011;59614;51.012;-1.648;2023-05-13T13:46:50;10.25;;;5.70;;
71108;SDS011;59614;51.012;-1.648;2023-05-13T13:49:15;10.82;;;6.00;;
71108;SDS011;59614;51.012;-1.648;2023-05-13T13:51:42;12.10;;;7.10;;
71108;SDS011;59614;51.012;-1.648;2023-05-13T13:54:07;14.15;;;6.82;;
71108;SDS011;59614;51.012;-1.648;2023-05-13T13:56:36;9.45;;;5.93;;
71108;SDS011;59614;51.012;-1.648;2023-05-13T13:59:03;12.07;;;6.38;;
71108;SDS011;59614;51.012;-1.648;2023-05-13T14:01:28;8.60;;;5.88;;
71108;SDS011;59614;51.012;-1.648;2023-05-13T14:04:08;8.80;;;5.72;;
71108;SDS011;59614;51.012;-1.648;2023-05-13T14:06:37;8.32;;;5.30;;
71108;SDS011;59614;51.012;-1.648;2023-05-13T14:09:06;8.43;;;5.28;;
71108;SDS011;59614;51.012;-1.648;2023-05-13T14:11:32;8.85;;;5.60;;
71108;SDS011;59614;51.012;-1.648;2023-05-13T14:13:58;7.20;;;5.53;;
71108;SDS011;59614;51.012;-1.648;2023-05-13T14:16:23;10.65;;;4.60;;
71108;SDS011;59614;51.012;-1.648;2023-05-13T14:18:49;7.32;;;5.40;;
71108;SDS011;59614;51.012;-1.648;2023-05-13T14:21:14;8.00;;;5.38;;
71108;SDS011;59614;51.012;-1.648;2023-05-13T14:23:40;7.65;;;5.40;;
71108;SDS011;59614;51.012;-1.648;2023-05-13T14:26:06;9.75;;;5.60;;
71108;SDS011;59614;51.012;-1.648;2023-05-13T14:28:33;10.43;;;6.18;;
71108;SDS011;59614;51.012;-1.648;2023-05-13T14:30:59;8.60;;;5.95;;
71108;SDS011;59614;51.012;-1.648;2023-05-13T14:33:24;9.50;;;5.68;;
71108;SDS011;59614;51.012;-1.648;2023-05-13T14:35:50;9.65;;;5.10;;
71108;SDS011;59614;51.012;-1.648;2023-05-13T14:38:16;8.65;;;5.93;;
71108;SDS011;59614;51.012;-1.648;2023-05-13T14:40:42;10.50;;;6.18;;
71108;SDS011;59614;51.012;-1.648;2023-05-13T14:43:07;8.45;;;5.95;;
71108;SDS011;59614;51.012;-1.648;2023-05-13T14:45:33;10.95;;;5.55;;
71108;SDS011;59614;51.012;-1.648;2023-05-13T14:47:59;8.32;;;5.80;;
71108;SDS011;59614;51.012;-1.648;2023-05-13T14:50:25;9.02;;;6.45;;
71108;SDS011;59614;51.012;-1.648;2023-05-13T14:52:50;9.55;;;5.93;;
71108;SDS011;59614;51.012;-1.648;2023-05-13T14:55:16;8.70;;;5.68;;